Time;durP1;ratioP1;P1;durP2;ratioP2;P2;SDS_P1;SDS_P2;PMS_P1;PMS_P2;Temp;Humidity;BMP_temperature;BMP_pressure;BME280_temperature;BME280_humidity;BME280_pressure;Samples;Min_cycle;Max_cycle;Signal;HPM_P1;HPM_P2
2024/02/24 00:00:05;;;;;;;;;1.00;1.00;;;;;8.76;64.94;99391.53;2026751;27;2723179;-75
2024/02/24 00:01:18;;;;;;;;;0.00;0.00;;;;;8.73;64.85;99391.66;2019254;28;2734038;-75
2024/02/24 00:02:31;;;;;;;;;1.83;1.00;;;;;8.73;64.94;99386.44;2018944;28;2741951;-74
2024/02/24 00:03:44;;;;;;;;;0.17;0.17;;;;;8.73;64.57;99386.44;2028124;28;2725270;-75
2024/02/24 00:04:58;;;;;;;;;1.83;1.00;;;;;8.71;64.57;99385.66;2026358;28;2741949;-75
2024/02/24 00:06:11;;;;;;;;;0.83;0.83;;;;;8.66;64.85;99393.72;2027470;28;2737828;-75
2024/02/24 00:07:24;;;;;;;;;0.17;0.17;;;;;8.64;65.24;99398.16;2018717;28;2733613;-75
2024/02/24 00:08:37;;;;;;;;;1.17;1.17;;;;;8.60;64.78;99386.16;2019058;28;2736727;-75
2024/02/24 00:09:50;;;;;;;;;1.17;1.17;;;;;8.60;64.99;99385.28;2017970;28;2739838;-75
2024/02/24 00:11:04;;;;;;;;;2.33;1.00;;;;;8.59;65.37;99389.72;2021802;27;2736724;-75
2024/02/24 00:12:17;;;;;;;;;2.00;2.00;;;;;8.58;65.20;99392.34;2019132;28;2735753;-75
2024/02/24 00:13:30;;;;;;;;;1.33;1.33;;;;;8.57;65.51;99386.25;2015150;28;2745077;-75
2024/02/24 00:14:43;;;;;;;;;1.83;1.00;;;;;8.59;65.38;99394.09;1999765;28;2744015;-75
2024/02/24 00:15:57;;;;;;;;;1.00;1.00;;;;;8.60;65.57;99398.38;2027254;28;2739856;-75
2024/02/24 00:17:10;;;;;;;;;1.00;1.00;;;;;8.57;65.44;99386.25;2026289;28;2734664;-75
2024/02/24 00:18:23;;;;;;;;;3.50;2.83;;;;;8.59;65.45;99394.09;2033689;27;2742966;-75
2024/02/24 00:19:36;;;;;;;;;1.83;1.83;;;;;8.57;65.14;99393.28;2010249;28;2734644;-75
2024/02/24 00:20:49;;;;;;;;;1.33;1.33;;;;;8.54;65.05;99399.50;2027432;28;2734031;-75
2024/02/24 00:22:02;;;;;;;;;2.00;2.00;;;;;8.53;65.35;99401.28;2026652;28;2738842;-75
2024/02/24 00:23:16;;;;;;;;;2.17;1.00;;;;;8.54;65.44;99402.94;2027181;28;2725597;-75
2024/02/24 00:24:29;;;;;;;;;1.33;1.33;;;;;8.51;65.20;99397.03;2018418;28;2734021;-75
2024/02/24 00:25:42;;;;;;;;;3.83;2.00;;;;;8.52;66.00;99401.34;2019430;28;2741925;-75
2024/02/24 00:26:55;;;;;;;;;2.00;2.00;;;;;8.53;65.95;99405.66;2003449;28;2737773;-75
2024/02/24 00:28:09;;;;;;;;;3.00;1.17;;;;;8.49;65.13;99407.59;2026131;28;2738834;-75
2024/02/24 00:29:22;;;;;;;;;2.00;2.00;;;;;8.51;65.50;99408.34;2017906;28;2744071;-75
2024/02/24 00:30:36;;;;;;;;;2.00;2.00;;;;;8.48;65.98;99403.25;2020245;28;2731521;-75
2024/02/24 00:31:49;;;;;;;;;1.67;1.00;;;;;8.49;65.56;99409.34;2026512;28;2745080;-75
2024/02/24 00:33:03;;;;;;;;;3.17;2.83;;;;;8.49;65.28;99410.19;2027439;28;2744023;-75
2024/02/24 00:34:16;;;;;;;;;2.17;2.17;;;;;8.48;65.50;99408.47;2025525;28;2744020;-75
2024/02/24 00:35:29;;;;;;;;;1.67;1.67;;;;;8.48;65.53;99413.72;2004041;28;2738833;-75
2024/02/24 00:36:43;;;;;;;;;3.00;3.00;;;;;8.44;65.42;99414.78;2026212;28;2742986;-75
2024/02/24 00:37:56;;;;;;;;;3.50;2.33;;;;;8.41;65.46;99407.06;2026196;28;2754436;-75
2024/02/24 00:39:09;;;;;;;;;1.17;1.17;;;;;8.43;65.25;99411.31;2003362;28;2730975;-75
2024/02/24 00:40:22;;;;;;;;;2.00;2.00;;;;;8.41;65.75;99409.69;2025825;28;2737766;-75
2024/02/24 00:41:35;;;;;;;;;2.33;2.00;;;;;8.46;65.56;99415.56;2026268;28;2752812;-75
2024/02/24 00:42:48;;;;;;;;;2.67;1.83;;;;;8.47;65.99;99419.88;2027607;27;2734653;-75
2024/02/24 00:44:02;;;;;;;;;3.00;2.00;;;;;8.46;65.56;99420.81;2025457;28;2739857;-75
2024/02/24 00:45:15;;;;;;;;;2.17;2.17;;;;;8.50;66.06;99418.88;2027179;27;2741931;-75
2024/02/24 00:46:28;;;;;;;;;2.00;2.00;;;;;8.48;65.74;99410.25;2025731;28;2734698;-75
2024/02/24 00:47:42;;;;;;;;;2.00;2.00;;;;;8.52;65.84;99423.13;2026661;28;2735144;-75
2024/02/24 00:48:55;;;;;;;;;1.00;1.00;;;;;8.50;66.32;99411.88;2026701;28;2737777;-75
2024/02/24 00:50:09;;;;;;;;;2.00;2.00;;;;;8.53;65.74;99419.59;2016869;28;2754454;-75
2024/02/24 00:51:22;;;;;;;;;3.17;2.00;;;;;8.52;65.83;99420.50;2019890;28;2738850;-75
2024/02/24 00:52:35;;;;;;;;;2.50;2.00;;;;;8.52;65.75;99430.97;2026141;28;2733606;-75
2024/02/24 00:53:48;;;;;;;;;2.67;2.67;;;;;8.53;65.90;99427.47;2016527;28;2752393;-75
2024/02/24 00:55:02;;;;;;;;;2.00;1.67;;;;;8.52;65.96;99424.94;1996730;28;2738811;-75
2024/02/24 00:56:15;;;;;;;;;3.00;3.00;;;;;8.51;65.90;99424.06;2026657;28;2748717;-75
2024/02/24 00:57:28;;;;;;;;;2.00;2.00;;;;;8.54;65.24;99429.13;2018506;28;2734657;-75
2024/02/24 00:58:41;;;;;;;;;1.17;1.17;;;;;8.51;65.61;99421.44;2019408;28;2731542;-75
2024/02/24 00:59:55;;;;;;;;;1.50;1.50;;;;;8.52;65.64;99424.94;2026574;27;2733061;-75
2024/02/24 01:01:09;;;;;;;;;3.33;1.67;;;;;8.50;65.58;99427.59;2019163;28;2731555;-75
2024/02/24 01:02:22;;;;;;;;;0.00;0.00;;;;;8.51;65.76;99425.81;2026862;28;2733946;-75
2024/02/24 01:03:35;;;;;;;;;3.00;2.17;;;;;8.50;65.45;99424.97;2018452;28;2753398;-75
2024/02/24 01:04:52;;;;;;;;;5.83;2.83;;;;;8.53;65.59;99427.47;1994958;28;2754459;-75
2024/02/24 01:06:05;;;;;;;;;3.17;3.17;;;;;8.51;65.90;99429.31;2003738;28;2754435;-75
2024/02/24 01:07:18;;;;;;;;;1.33;1.33;;;;;8.50;65.27;99431.97;2005428;28;2727377;-75
2024/02/24 01:08:31;;;;;;;;;1.50;1.50;;;;;8.47;65.45;99432.13;2026492;28;2745100;-75
2024/02/24 01:09:45;;;;;;;;;2.67;2.67;;;;;8.44;65.24;99427.88;2027805;28;2754431;-75
2024/02/24 01:10:58;;;;;;;;;1.67;1.00;;;;;8.43;65.00;99431.41;2018120;27;2745053;-75
2024/02/24 01:12:11;;;;;;;;;4.33;2.00;;;;;8.38;65.12;99423.75;2020511;28;2732573;-75
2024/02/24 01:13:24;;;;;;;;;1.83;1.83;;;;;8.39;65.30;99427.25;2028022;28;2725271;-75
2024/02/24 01:14:38;;;;;;;;;1.00;1.00;;;;;8.38;65.19;99430.75;2020098;28;2724228;-75
2024/02/24 01:15:51;;;;;;;;;2.00;2.00;;;;;8.33;65.63;99426.59;2030437;27;2735706;-75
2024/02/24 01:17:04;;;;;;;;;2.17;2.17;;;;;8.32;65.22;99419.66;2033603;28;2733584;-75
2024/02/24 01:18:17;;;;;;;;;2.00;2.00;;;;;8.33;65.21;99426.59;2018652;28;2735682;-75
2024/02/24 01:19:30;;;;;;;;;2.83;1.67;;;;;8.32;65.07;99431.91;2021151;28;2735702;-75
2024/02/24 01:20:48;;;;;;;;;3.17;3.17;;;;;8.29;65.26;99427.66;1996049;28;2746113;-75
2024/02/24 01:22:01;;;;;;;;;3.50;2.50;;;;;8.27;65.76;99437.31;2019804;28;2752948;-75
2024/02/24 01:23:16;;;;;;;;;2.33;2.00;;;;;8.25;65.30;99431.31;2027074;28;2754428;-75
2024/02/24 01:24:29;;;;;;;;;2.50;2.50;;;;;8.24;64.93;99445.34;2005006;28;2723203;-75
2024/02/24 01:25:44;;;;;;;;;3.83;1.17;;;;;8.23;65.66;99446.25;2028621;27;2729433;-75
2024/02/24 01:26:57;;;;;;;;;3.00;2.67;;;;;8.20;65.58;99441.13;2026853;28;2754935;-75
2024/02/24 01:28:10;;;;;;;;;2.33;2.33;;;;;8.18;65.55;99448.19;2026236;28;2750292;-75
2024/02/24 01:29:24;;;;;;;;;3.00;3.00;;;;;8.18;65.71;99456.91;1994926;28;2754424;-75
2024/02/24 01:30:37;;;;;;;;;3.00;3.00;;;;;8.15;65.38;99450.97;1996069;28;2754427;-75
2024/02/24 01:31:50;;;;;;;;;3.83;3.00;;;;;8.16;65.76;99452.66;2026598;28;2754451;-75
2024/02/24 01:33:06;;;;;;;;;2.17;2.17;;;;;8.18;65.65;99461.28;2003195;28;2750291;-75
2024/02/24 01:34:20;;;;;;;;;3.00;3.00;;;;;8.16;65.74;99460.50;2004340;28;2746142;-75
2024/02/24 01:35:35;;;;;;;;;2.00;2.00;;;;;8.15;65.71;99464.06;2026977;28;2741963;-75
2024/02/24 01:36:48;;;;;;;;;2.50;2.50;;;;;8.14;65.82;99459.72;2026986;28;2725799;-75
2024/02/24 01:38:02;;;;;;;;;3.00;2.00;;;;;8.13;65.83;99461.50;2017770;28;2746127;-75
2024/02/24 01:39:15;;;;;;;;;3.00;2.17;;;;;8.14;65.74;99459.72;2026384;27;2741972;-75
2024/02/24 01:40:29;;;;;;;;;3.00;2.50;;;;;8.09;65.68;99455.56;2002973;28;2754466;-75
2024/02/24 01:41:43;;;;;;;;;2.83;2.17;;;;;8.08;65.56;99461.69;2027524;28;2739860;-75
2024/02/24 01:42:56;;;;;;;;;2.00;2.00;;;;;8.06;65.58;99466.16;2018965;28;2733718;-75
2024/02/24 01:44:09;;;;;;;;;3.00;2.00;;;;;8.02;65.63;99458.50;2020691;28;2735755;-75
2024/02/24 01:45:22;;;;;;;;;4.50;2.83;;;;;8.01;65.74;99467.25;2022679;28;2744020;-75
2024/02/24 01:46:36;;;;;;;;;3.00;3.00;;;;;8.00;65.54;99476.88;2026558;27;2752385;-75
2024/02/24 01:47:50;;;;;;;;;3.00;2.00;;;;;7.98;65.46;99478.69;2004777;27;2728407;-75
2024/02/24 01:49:03;;;;;;;;;2.50;2.00;;;;;7.96;65.69;99470.06;2025777;27;2733619;-75
2024/02/24 01:50:17;;;;;;;;;2.50;2.50;;;;;7.94;65.49;99470.16;2024757;28;2744027;-75
2024/02/24 01:51:30;;;;;;;;;3.50;2.83;;;;;7.92;65.41;99468.50;2018188;28;2746497;-75
2024/02/24 01:52:47;;;;;;;;;2.17;2.17;;;;;7.93;65.32;99470.19;2011215;28;2733607;-75
2024/02/24 01:54:00;;;;;;;;;2.00;1.67;;;;;7.87;65.71;99477.41;2015496;28;2738838;-75
2024/02/24 01:55:16;;;;;;;;;3.83;2.00;;;;;7.88;65.77;99478.25;2026760;28;2735691;-75
2024/02/24 01:56:29;;;;;;;;;7.50;3.00;;;;;7.86;65.80;99474.84;2027043;28;2744042;-75
2024/02/24 01:57:44;;;;;;;;;5.33;2.17;;;;;7.86;65.60;99483.53;2027144;28;2754483;-75
2024/02/24 01:58:57;;;;;;;;;5.00;3.00;;;;;7.83;65.86;99483.66;1995087;28;2752731;-75
2024/02/24 02:00:12;;;;;;;;;3.00;2.00;;;;;7.83;65.42;99491.50;1997692;28;2727370;-75
2024/02/24 02:01:26;;;;;;;;;2.17;2.17;;;;;7.79;65.47;99484.72;2019489;28;2733607;-75
2024/02/24 02:02:40;;;;;;;;;2.00;2.00;;;;;7.80;65.60;99496.91;2018629;28;2735035;-75
2024/02/24 02:03:53;;;;;;;;;2.33;2.33;;;;;7.78;65.09;99497.88;2019769;28;2750283;-75
2024/02/24 02:05:07;;;;;;;;;1.00;1.00;;;;;7.76;65.51;99493.53;2025136;28;2741249;-75
2024/02/24 02:06:21;;;;;;;;;3.33;2.67;;;;;7.76;65.58;99495.31;2023725;28;2737789;-75
2024/02/24 02:07:35;;;;;;;;;2.83;2.83;;;;;7.72;65.51;99489.38;2027121;28;2742974;-75
2024/02/24 02:08:48;;;;;;;;;3.00;3.00;;;;;7.72;64.96;99488.50;2027525;28;2752345;-75
2024/02/24 02:10:01;;;;;;;;;0.83;0.83;;;;;7.71;65.09;99492.03;1994273;28;2738827;-75
2024/02/24 02:11:15;;;;;;;;;2.83;1.67;;;;;7.71;65.05;99492.03;2020008;28;2746099;-75
2024/02/24 02:12:28;;;;;;;;;1.17;1.17;;;;;7.64;65.37;99484.44;2027242;28;2746110;-75
2024/02/24 02:13:41;;;;;;;;;2.00;2.00;;;;;7.67;65.27;99486.09;2027643;28;2743023;-75
2024/02/24 02:14:55;;;;;;;;;1.83;1.50;;;;;7.68;64.91;99492.16;2025706;27;2734645;-75
2024/02/24 02:16:08;;;;;;;;;0.83;0.83;;;;;7.64;64.81;99487.06;2028764;28;2725747;-75
2024/02/24 02:17:21;;;;;;;;;3.17;2.33;;;;;7.62;65.05;99481.03;2027104;28;2739864;-75
2024/02/24 02:18:35;;;;;;;;;1.67;1.67;;;;;7.64;64.95;99492.28;2028053;28;2738169;-75
2024/02/24 02:19:48;;;;;;;;;2.67;1.67;;;;;7.63;64.85;99487.97;2027863;28;2737227;-75
2024/02/24 02:21:02;;;;;;;;;2.17;1.17;;;;;7.63;64.98;99490.56;2027653;28;2738839;-75
2024/02/24 02:22:17;;;;;;;;;1.83;1.83;;;;;7.59;64.97;99486.38;2027378;28;2741945;-75
2024/02/24 02:23:30;;;;;;;;;2.17;1.50;;;;;7.60;64.88;99490.72;2019283;28;2736728;-75
2024/02/24 02:24:44;;;;;;;;;1.67;1.00;;;;;7.58;64.53;99487.28;2019531;28;2739856;-75
2024/02/24 02:25:57;;;;;;;;;2.67;2.67;;;;;7.56;64.84;99483.88;2026552;28;2732572;-75
2024/02/24 02:27:11;;;;;;;;;1.33;1.17;;;;;7.56;64.97;99485.66;2018644;28;2733617;-75
2024/02/24 02:28:24;;;;;;;;;1.00;1.00;;;;;7.57;65.07;99485.59;2020866;28;2726394;-75
2024/02/24 02:29:37;;;;;;;;;2.50;1.00;;;;;7.54;64.70;99488.34;2027907;27;2734652;-75
2024/02/24 02:30:52;;;;;;;;;1.00;1.00;;;;;7.56;64.88;99491.75;2018735;28;2741952;-75
2024/02/24 02:32:07;;;;;;;;;3.00;1.50;;;;;7.54;64.77;99485.72;2019886;28;2739864;-75
2024/02/24 02:33:20;;;;;;;;;1.00;1.00;;;;;7.55;64.54;99492.66;2027659;28;2739873;-75
2024/02/24 02:34:33;;;;;;;;;1.67;1.33;;;;;7.53;64.55;99497.13;2026203;28;2746129;-75
2024/02/24 02:35:46;;;;;;;;;3.33;2.00;;;;;7.53;65.06;99492.72;2027537;28;2746146;-75
2024/02/24 02:37:00;;;;;;;;;2.00;0.33;;;;;7.48;64.55;99489.44;2018223;28;2737813;-75
2024/02/24 02:38:13;;;;;;;;;0.67;0.67;;;;;7.51;64.81;99491.06;2020678;28;2737801;-75
2024/02/24 02:39:26;;;;;;;;;0.00;0.00;;;;;7.53;65.02;99494.50;2027917;27;2729433;-75
2024/02/24 02:40:39;;;;;;;;;2.00;2.00;;;;;7.50;64.86;99503.31;2035320;28;2740333;-75
2024/02/24 02:41:52;;;;;;;;;1.50;1.00;;;;;7.49;64.57;99488.53;2022577;28;2736203;-75
2024/02/24 02:43:06;;;;;;;;;1.00;1.00;;;;;7.49;64.40;99495.50;2018722;28;2740941;-75
2024/02/24 02:44:19;;;;;;;;;0.50;0.50;;;;;7.48;64.48;99494.66;2027044;28;2730467;-75
2024/02/24 02:45:32;;;;;;;;;1.17;1.17;;;;;7.47;64.20;99494.72;2027084;28;2740922;-75
2024/02/24 02:46:47;;;;;;;;;1.00;1.00;;;;;7.47;64.64;99494.72;2017228;28;2725267;-75
2024/02/24 02:48:00;;;;;;;;;1.00;0.00;;;;;7.45;64.54;99497.41;2021517;28;2727379;-75
2024/02/24 02:49:14;;;;;;;;;1.00;1.00;;;;;7.41;64.57;99491.44;2018499;28;2739901;-75
2024/02/24 02:50:27;;;;;;;;;1.00;1.00;;;;;7.41;64.60;99490.59;2018655;28;2741924;-75
2024/02/24 02:51:40;;;;;;;;;0.17;0.17;;;;;7.37;64.26;99489.88;2020609;28;2725290;-75
2024/02/24 02:52:53;;;;;;;;;1.00;1.00;;;;;7.40;64.28;99494.13;2018664;28;2735687;-75
2024/02/24 02:54:07;;;;;;;;;0.33;0.00;;;;;7.36;64.15;99493.38;2019293;28;2729429;-75
2024/02/24 02:55:20;;;;;;;;;0.33;0.33;;;;;7.39;64.56;99497.66;2020810;28;2732578;-75
2024/02/24 02:56:34;;;;;;;;;0.50;0.50;;;;;7.37;64.41;99497.72;2026751;28;2723186;-75
2024/02/24 02:57:48;;;;;;;;;1.00;1.00;;;;;7.38;64.70;99495.97;2028316;28;2728394;-75
2024/02/24 02:59:01;;;;;;;;;1.00;1.00;;;;;7.36;64.52;99495.19;2027455;27;2732605;-75
2024/02/24 03:00:15;;;;;;;;;0.33;0.33;;;;;7.36;64.04;99497.78;2018058;28;2740883;-75
2024/02/24 03:01:28;;;;;;;;;1.00;1.00;;;;;7.36;64.57;99497.78;2020319;28;2733623;-75
2024/02/24 03:02:42;;;;;;;;;1.00;1.00;;;;;7.35;64.34;99496.94;2028171;27;2735705;-75
2024/02/24 03:03:55;;;;;;;;;2.50;2.50;;;;;7.33;64.73;99504.00;2027289;28;2744027;-75
2024/02/24 03:05:08;;;;;;;;;3.00;2.00;;;;;7.30;64.67;99491.03;2025924;28;2746099;-75
2024/02/24 03:06:21;;;;;;;;;1.83;1.00;;;;;7.30;64.41;99502.34;2017865;28;2738823;-75
2024/02/24 03:07:34;;;;;;;;;1.00;1.00;;;;;7.30;64.53;99506.72;2020638;28;2736751;-75
2024/02/24 03:08:48;;;;;;;;;2.33;1.00;;;;;7.29;64.50;99507.63;2026825;28;2735013;-75
2024/02/24 03:10:01;;;;;;;;;0.50;0.33;;;;;7.29;64.36;99512.84;2028203;28;2721110;-75
2024/02/24 03:11:16;;;;;;;;;1.33;1.00;;;;;7.27;64.71;99504.22;2018565;28;2738186;-75
2024/02/24 03:12:29;;;;;;;;;1.17;1.00;;;;;7.27;64.59;99514.66;2020755;28;2729428;-74
2024/02/24 03:13:43;;;;;;;;;2.67;1.00;;;;;7.25;64.26;99508.66;2026973;28;2737786;-75
2024/02/24 03:14:56;;;;;;;;;2.00;2.00;;;;;7.23;64.63;99507.88;2027086;28;2741920;-75
2024/02/24 03:16:09;;;;;;;;;2.50;1.00;;;;;7.22;64.61;99512.22;2025790;28;2738808;-75
2024/02/24 03:17:23;;;;;;;;;2.00;2.00;;;;;7.22;64.36;99508.75;2026744;28;2740925;-75
2024/02/24 03:18:36;;;;;;;;;1.00;1.00;;;;;7.24;64.52;99514.78;2026413;27;2733627;-74
2024/02/24 03:19:49;;;;;;;;;1.17;1.00;;;;;7.23;65.02;99520.94;2027841;28;2729421;-74
2024/02/24 03:21:02;;;;;;;;;1.00;1.00;;;;;7.22;64.96;99514.00;2026952;28;2730514;-75
2024/02/24 03:22:15;;;;;;;;;1.83;1.67;;;;;7.19;64.99;99513.19;2026849;28;2746112;-75
2024/02/24 03:23:29;;;;;;;;;1.00;1.00;;;;;7.20;64.65;99516.69;2018295;28;2738811;-75
2024/02/24 03:24:42;;;;;;;;;1.17;1.17;;;;;7.20;64.76;99519.28;2019519;27;2746105;-75
2024/02/24 03:25:56;;;;;;;;;1.00;1.00;;;;;7.19;64.90;99531.50;2018021;28;2741944;-75
2024/02/24 03:27:13;;;;;;;;;2.00;2.00;;;;;7.20;64.99;99533.22;2011651;28;2724221;-75
2024/02/24 03:28:26;;;;;;;;;2.00;2.00;;;;;7.20;64.71;99540.19;2020159;28;2734649;-75
2024/02/24 03:29:40;;;;;;;;;1.67;1.50;;;;;7.19;65.09;99539.34;2025871;28;2741932;-75
2024/02/24 03:30:53;;;;;;;;;3.00;1.83;;;;;7.17;64.85;99528.09;2027032;28;2736788;-75
2024/02/24 03:32:06;;;;;;;;;1.67;1.33;;;;;7.18;65.04;99537.66;2026524;28;2741921;-75
2024/02/24 03:33:19;;;;;;;;;1.33;1.33;;;;;7.19;65.31;99539.34;2018284;28;2739307;-75
2024/02/24 03:34:33;;;;;;;;;2.67;0.67;;;;;7.19;65.30;99536.72;2019547;28;2732562;-75
2024/02/24 03:35:46;;;;;;;;;1.17;0.83;;;;;7.19;65.35;99538.47;2026376;28;2744004;-75
2024/02/24 03:36:59;;;;;;;;;3.00;2.00;;;;;7.20;65.36;99537.59;2026486;27;2726281;-75
2024/02/24 03:38:12;;;;;;;;;1.00;1.00;;;;;7.21;65.23;99541.88;2023455;28;2740915;-75
2024/02/24 03:39:25;;;;;;;;;2.33;1.33;;;;;7.22;65.45;99537.50;2019753;28;2738835;-75
2024/02/24 03:40:39;;;;;;;;;4.00;2.33;;;;;7.22;65.26;99542.75;2017882;28;2734651;-75
2024/02/24 03:41:52;;;;;;;;;2.33;2.33;;;;;7.23;65.36;99540.09;2019089;28;2734104;-75
2024/02/24 03:43:05;;;;;;;;;2.00;2.00;;;;;7.24;65.44;99546.13;2018219;28;2736792;-75
2024/02/24 03:44:19;;;;;;;;;3.00;1.67;;;;;7.20;65.68;99533.22;2027239;28;2740887;-75
2024/02/24 03:45:32;;;;;;;;;2.00;2.00;;;;;7.22;65.28;99543.59;2025508;28;2746126;-75
2024/02/24 03:46:45;;;;;;;;;2.17;2.17;;;;;7.22;65.13;99537.50;2035254;28;2726682;-75
2024/02/24 03:47:58;;;;;;;;;1.00;1.00;;;;;7.23;65.70;99537.47;2033219;28;2738226;-75
2024/02/24 03:49:11;;;;;;;;;2.67;2.67;;;;;7.26;65.02;99539.13;2018653;28;2734667;-75
2024/02/24 03:50:25;;;;;;;;;2.00;2.00;;;;;7.28;65.41;99542.53;2020094;28;2735697;-75
2024/02/24 03:51:38;;;;;;;;;2.33;2.17;;;;;7.28;65.62;99538.16;2027379;28;2734648;-75
2024/02/24 03:52:51;;;;;;;;;1.50;1.50;;;;;7.28;65.36;99537.28;2026021;28;2744051;-75
2024/02/24 03:54:05;;;;;;;;;3.67;2.50;;;;;7.28;65.26;99532.91;2026856;28;2744026;-75
2024/02/24 03:55:18;;;;;;;;;4.00;2.00;;;;;7.27;65.55;99532.97;2027300;28;2733604;-75
2024/02/24 03:56:31;;;;;;;;;2.17;2.00;;;;;7.29;65.62;99538.97;2016826;28;2745447;-75
2024/02/24 03:57:44;;;;;;;;;1.67;1.33;;;;;7.29;65.19;99533.75;2018148;28;2739880;-75
2024/02/24 03:58:57;;;;;;;;;2.50;2.33;;;;;7.26;65.49;99536.50;2026280;28;2735686;-75
2024/02/24 04:00:11;;;;;;;;;3.67;3.17;;;;;7.27;64.97;99540.81;2025028;28;2744016;-75
2024/02/24 04:01:27;;;;;;;;;1.83;1.00;;;;;7.28;64.99;99543.38;2026912;27;2740922;-74
2024/02/24 04:02:42;;;;;;;;;2.50;2.50;;;;;7.27;65.16;99549.50;2027136;28;2742981;-75
2024/02/24 04:03:56;;;;;;;;;1.00;1.00;;;;;7.23;65.66;99542.69;2027784;28;2732580;-74
2024/02/24 04:05:09;;;;;;;;;2.83;2.33;;;;;7.27;64.88;99544.28;2026414;28;2744019;-75
2024/02/24 04:06:22;;;;;;;;;2.50;2.50;;;;;7.24;65.45;99547.00;2025662;28;2746464;-75
2024/02/24 04:07:35;;;;;;;;;1.17;1.00;;;;;7.24;64.79;99551.38;2027442;28;2733650;-75
2024/02/24 04:08:49;;;;;;;;;2.17;2.17;;;;;7.23;65.08;99552.28;2026848;28;2742977;-75
2024/02/24 04:10:03;;;;;;;;;1.83;1.17;;;;;7.22;65.20;99559.28;2026361;28;2742494;-74
2024/02/24 04:11:16;;;;;;;;;6.17;3.33;;;;;7.24;65.32;99561.81;2026830;28;2741916;-75
2024/02/24 04:12:29;;;;;;;;;1.67;1.67;;;;;7.22;65.15;99563.66;2026810;28;2729455;-75
2024/02/24 04:13:42;;;;;;;;;2.67;1.67;;;;;7.23;65.14;99567.97;2014382;28;2740887;-75
2024/02/24 04:14:55;;;;;;;;;4.83;2.00;;;;;7.20;65.46;99566.34;2011283;28;2735694;-75
2024/02/24 04:16:09;;;;;;;;;2.00;2.00;;;;;7.22;65.12;99569.72;2019238;28;2735663;-75
2024/02/24 04:17:22;;;;;;;;;2.00;1.67;;;;;7.19;65.26;99575.94;2026737;27;2734675;-74
2024/02/24 04:18:35;;;;;;;;;3.17;2.00;;;;;7.19;65.12;99573.31;2027175;28;2732585;-74
2024/02/24 04:19:48;;;;;;;;;1.67;1.67;;;;;7.16;64.96;99576.03;2027226;28;2731523;-75
2024/02/24 04:21:03;;;;;;;;;3.83;2.50;;;;;7.17;65.27;99572.53;2026619;28;2732586;-74
2024/02/24 04:22:16;;;;;;;;;3.50;1.83;;;;;7.19;65.04;99575.06;1994659;28;2746142;-75
2024/02/24 04:23:29;;;;;;;;;2.00;2.00;;;;;7.19;65.49;99581.16;2011134;28;2729416;-74
2024/02/24 04:24:42;;;;;;;;;3.83;1.83;;;;;7.17;65.05;99582.13;2018872;28;2742990;-74
2024/02/24 04:25:56;;;;;;;;;3.67;2.83;;;;;7.16;65.18;99585.66;2025943;28;2734636;-74
2024/02/24 04:27:09;;;;;;;;;3.83;3.83;;;;;7.15;65.39;99587.41;2025668;28;2749290;-75
2024/02/24 04:28:22;;;;;;;;;1.67;1.67;;;;;7.16;65.58;99581.25;2003877;27;2729472;-75
2024/02/24 04:29:35;;;;;;;;;2.00;2.00;;;;;7.17;65.53;99587.34;2027279;28;2734721;-75
2024/02/24 04:30:48;;;;;;;;;2.00;2.00;;;;;7.15;65.23;99581.31;2023673;28;2744023;-75
2024/02/24 04:32:02;;;;;;;;;2.00;2.00;;;;;7.16;65.34;99586.50;2024478;28;2739934;-74
2024/02/24 04:33:16;;;;;;;;;3.83;3.00;;;;;7.16;65.00;99589.09;2026905;28;2743001;-75
2024/02/24 04:34:30;;;;;;;;;2.00;2.00;;;;;7.18;65.42;99594.28;2004049;28;2728409;-75
2024/02/24 04:35:43;;;;;;;;;3.50;3.17;;;;;7.17;65.37;99592.56;2017865;28;2751359;-75
2024/02/24 04:36:57;;;;;;;;;2.50;1.67;;;;;7.18;65.49;99594.28;2021788;28;2736728;-75
2024/02/24 04:38:10;;;;;;;;;3.00;3.00;;;;;7.16;65.64;99586.50;2019297;28;2754412;-75
2024/02/24 04:39:23;;;;;;;;;2.17;2.00;;;;;7.20;65.48;99593.31;2003152;28;2738151;-74
2024/02/24 04:40:37;;;;;;;;;3.50;2.83;;;;;7.20;65.32;99595.09;2027137;28;2753381;-75
2024/02/24 04:41:50;;;;;;;;;2.33;2.33;;;;;7.18;65.55;99600.38;2027611;28;2744027;-75
2024/02/24 04:43:03;;;;;;;;;2.83;2.83;;;;;7.16;65.32;99594.31;2019770;28;2734656;-75
2024/02/24 04:44:16;;;;;;;;;3.83;2.00;;;;;7.18;65.30;99600.38;2020277;28;2739856;-75
2024/02/24 04:45:29;;;;;;;;;1.83;1.83;;;;;7.19;65.14;99602.06;2026082;28;2733599;-75
2024/02/24 04:46:43;;;;;;;;;2.83;2.83;;;;;7.16;65.24;99602.16;2024470;27;2741952;-74
2024/02/24 04:47:56;;;;;;;;;3.33;2.00;;;;;7.17;65.16;99601.28;2019109;28;2734637;-75
2024/02/24 04:49:09;;;;;;;;;4.17;4.17;;;;;7.15;65.28;99605.72;2019236;28;2749248;-75
2024/02/24 04:50:22;;;;;;;;;5.00;2.50;;;;;7.16;65.72;99607.41;2027405;28;2737786;-75
2024/02/24 04:51:35;;;;;;;;;3.17;2.00;;;;;7.16;65.48;99610.00;2027356;27;2746127;-75
2024/02/24 04:52:49;;;;;;;;;2.67;2.17;;;;;7.15;65.57;99605.72;2019678;28;2744526;-75
2024/02/24 04:54:02;;;;;;;;;4.00;4.00;;;;;7.14;65.44;99606.59;2019797;28;2754513;-74
2024/02/24 04:55:15;;;;;;;;;3.00;2.67;;;;;7.15;65.66;99613.53;1996433;28;2739865;-74
2024/02/24 04:56:28;;;;;;;;;2.17;2.17;;;;;7.12;65.67;99611.03;2018291;27;2750280;-75
2024/02/24 04:57:41;;;;;;;;;3.00;3.00;;;;;7.14;65.50;99617.06;2003873;28;2754451;-74
2024/02/24 04:58:55;;;;;;;;;3.17;3.17;;;;;7.12;65.90;99612.78;2018585;28;2740926;-75
2024/02/24 05:00:08;;;;;;;;;1.33;1.33;;;;;7.17;65.83;99622.19;1997286;28;2732561;-75
2024/02/24 05:01:22;;;;;;;;;4.17;3.33;;;;;7.14;65.78;99616.19;2019060;28;2737821;-74
2024/02/24 05:02:36;;;;;;;;;3.33;3.33;;;;;7.15;65.64;99618.78;1997038;28;2749754;-74
2024/02/24 05:03:49;;;;;;;;;2.33;2.33;;;;;7.14;65.99;99619.66;2018638;28;2741963;-74
2024/02/24 05:05:01;;;;;;;;;3.00;2.00;;;;;7.15;65.70;99620.53;2020279;27;2729443;-74
2024/02/24 05:06:14;;;;;;;;;2.33;2.33;;;;;7.15;66.08;99616.16;2025584;28;2746115;-74
2024/02/24 05:07:28;;;;;;;;;2.83;2.17;;;;;7.18;65.92;99616.06;2026753;28;2750730;-75
2024/02/24 05:08:43;;;;;;;;;1.83;1.83;;;;;7.19;65.79;99620.34;2027785;28;2733618;-74
2024/02/24 05:09:57;;;;;;;;;3.50;3.50;;;;;7.19;65.54;99615.13;2027771;28;2754801;-75
2024/02/24 05:11:10;;;;;;;;;5.83;4.00;;;;;7.20;65.72;99619.47;2026368;28;2752372;-75
2024/02/24 05:12:23;;;;;;;;;4.17;3.00;;;;;7.23;65.55;99633.31;2004405;28;2745069;-74
2024/02/24 05:13:37;;;;;;;;;4.00;2.83;;;;;7.20;66.00;99619.47;2027547;28;2737805;-74
2024/02/24 05:14:50;;;;;;;;;3.00;3.00;;;;;7.25;65.94;99628.88;2027390;27;2744032;-74
2024/02/24 05:16:04;;;;;;;;;2.00;2.00;;;;;7.23;65.60;99623.72;2027056;28;2746122;-74
2024/02/24 05:17:17;;;;;;;;;2.83;2.83;;;;;7.24;65.58;99627.16;2018895;28;2739842;-75
2024/02/24 05:18:31;;;;;;;;;3.33;3.00;;;;;7.25;65.75;99626.28;2020254;28;2738808;-75
2024/02/24 05:19:44;;;;;;;;;3.17;2.67;;;;;7.27;65.63;99634.91;2027264;28;2749224;-74
2024/02/24 05:20:59;;;;;;;;;2.83;2.83;;;;;7.29;65.41;99633.06;2026659;28;2741943;-75
2024/02/24 05:22:12;;;;;;;;;2.83;2.83;;;;;7.29;65.19;99639.16;2028334;28;2730463;-75
2024/02/24 05:23:26;;;;;;;;;2.33;2.17;;;;;7.30;65.63;99640.88;2027311;28;2739892;-75
2024/02/24 05:24:39;;;;;;;;;2.83;2.67;;;;;7.29;65.63;99656.59;2018958;28;2741935;-75
2024/02/24 05:25:52;;;;;;;;;3.33;2.00;;;;;7.28;65.39;99642.72;2019680;28;2737821;-74
2024/02/24 05:27:06;;;;;;;;;3.00;3.00;;;;;7.26;65.45;99634.03;2028068;28;2744047;-75
2024/02/24 05:28:19;;;;;;;;;3.17;3.17;;;;;7.28;65.09;99634.00;2002320;28;2754433;-74
2024/02/24 05:29:32;;;;;;;;;2.33;2.33;;;;;7.30;65.26;99640.88;2003886;28;2751322;-75
2024/02/24 05:30:47;;;;;;;;;6.00;4.00;;;;;7.28;65.36;99640.09;1994820;28;2754488;-75
2024/02/24 05:32:00;;;;;;;;;4.50;3.00;;;;;7.27;65.13;99645.34;2018534;28;2752333;-75
2024/02/24 05:33:14;;;;;;;;;1.33;1.33;;;;;7.28;65.60;99652.31;2020839;28;2734669;-75
2024/02/24 05:34:27;;;;;;;;;3.00;3.00;;;;;7.27;65.23;99651.44;2027212;28;2752348;-75
2024/02/24 05:35:41;;;;;;;;;4.00;3.17;;;;;7.31;65.44;99660.00;2004627;28;2737765;-75
2024/02/24 05:36:54;;;;;;;;;4.17;3.00;;;;;7.28;65.39;99660.16;2003548;28;2750300;-75
2024/02/24 05:38:08;;;;;;;;;3.50;2.83;;;;;7.27;65.24;99658.44;2018902;28;2752345;-75
2024/02/24 05:39:21;;;;;;;;;2.83;2.83;;;;;7.25;65.15;99663.72;2020558;28;2741928;-74
2024/02/24 05:40:34;;;;;;;;;4.83;3.00;;;;;7.27;65.37;99661.03;1995964;28;2740353;-74